Mermentau, Louisiana
Current Conditions -  °F | °C
As of 1:15 PM on Monday 22 Dec 2014 (Local Time) from K3R7 Reporting Station
Broken Clouds Broken Clouds  
Wind Chill: 73°   Ceiling: 3400
Heat Index: 73°   Visibility: 10mi
Dew Point: 63°   Wind: 8mph
Humidity: 71%   Direction: 230°SW
Pressure: 29.69"   Gusts: NA
Location:  30.19°N, 92.58°W
Report Text: K3R7 221915Z AUTO 23007KT 10SM SCT026 BKN034 23/17 A2969 RMK AO2 T02260171
Loading
Personal Weather Stations






























Interactive Weather Map New forecast layout! Learn more

10-Day Weather Forecast

Advertisements
Track Severe Weather on mobile